sensor_id;sensor_type;location;lat;lon;timestamp;temperature;humidity
26947;DHT22;14501;52.282;10.560;2023-04-25T00:00:05;8.20;99.90
26947;DHT22;14501;52.282;10.560;2023-04-25T00:02:33;8.20;99.90
26947;DHT22;14501;52.282;10.560;2023-04-25T00:05:00;8.60;99.90
26947;DHT22;14501;52.282;10.560;2023-04-25T00:07:27;8.20;99.90
26947;DHT22;14501;52.282;10.560;2023-04-25T00:09:52;8.20;99.90
26947;DHT22;14501;52.282;10.560;2023-04-25T00:14:45;8.10;99.90
26947;DHT22;14501;52.282;10.560;2023-04-25T00:22:03;8.00;99.90
26947;DHT22;14501;52.282;10.560;2023-04-25T00:24:30;8.10;99.90
26947;DHT22;14501;52.282;10.560;2023-04-25T00:26:56;9.70;99.90
26947;DHT22;14501;52.282;10.560;2023-04-25T00:29:22;8.10;99.90
26947;DHT22;14501;52.282;10.560;2023-04-25T00:34:13;8.00;99.90
26947;DHT22;14501;52.282;10.560;2023-04-25T00:36:39;10.30;99.90
26947;DHT22;14501;52.282;10.560;2023-04-25T00:41:32;7.90;99.90
26947;DHT22;14501;52.282;10.560;2023-04-25T00:43:59;9.70;99.90
26947;DHT22;14501;52.282;10.560;2023-04-25T00:46:25;7.90;99.90
26947;DHT22;14501;52.282;10.560;2023-04-25T00:51:20;7.80;99.90
26947;DHT22;14501;52.282;10.560;2023-04-25T00:56:12;7.80;99.90
26947;DHT22;14501;52.282;10.560;2023-04-25T00:58:38;7.90;99.90
26947;DHT22;14501;52.282;10.560;2023-04-25T01:01:06;7.80;99.90
26947;DHT22;14501;52.282;10.560;2023-04-25T01:03:33;7.90;99.90
26947;DHT22;14501;52.282;10.560;2023-04-25T01:06:01;7.80;99.90
26947;DHT22;14501;52.282;10.560;2023-04-25T01:10:53;7.90;99.90
26947;DHT22;14501;52.282;10.560;2023-04-25T01:13:19;7.80;99.90
26947;DHT22;14501;52.282;10.560;2023-04-25T01:15:45;7.90;99.90
26947;DHT22;14501;52.282;10.560;2023-04-25T01:18:12;6.70;99.90
26947;DHT22;14501;52.282;10.560;2023-04-25T01:20:38;8.80;99.90
26947;DHT22;14501;52.282;10.560;2023-04-25T01:23:04;7.80;99.90
26947;DHT22;14501;52.282;10.560;2023-04-25T01:25:30;7.80;99.90
26947;DHT22;14501;52.282;10.560;2023-04-25T01:27:57;7.80;99.90
26947;DHT22;14501;52.282;10.560;2023-04-25T01:30:25;7.80;99.90
26947;DHT22;14501;52.282;10.560;2023-04-25T01:32:53;7.80;99.90
26947;DHT22;14501;52.282;10.560;2023-04-25T01:35:19;8.50;99.90
26947;DHT22;14501;52.282;10.560;2023-04-25T01:37:45;8.40;99.90
26947;DHT22;14501;52.282;10.560;2023-04-25T01:40:11;10.10;99.90
26947;DHT22;14501;52.282;10.560;2023-04-25T01:42:42;7.70;99.90
26947;DHT22;14501;52.282;10.560;2023-04-25T01:45:09;9.30;99.90
26947;DHT22;14501;52.282;10.560;2023-04-25T01:47:35;7.70;99.90
26947;DHT22;14501;52.282;10.560;2023-04-25T01:50:01;7.60;99.90
26947;DHT22;14501;52.282;10.560;2023-04-25T01:52:27;8.10;99.90
26947;DHT22;14501;52.282;10.560;2023-04-25T01:57:19;7.60;99.90
26947;DHT22;14501;52.282;10.560;2023-04-25T01:59:45;7.70;99.90
26947;DHT22;14501;52.282;10.560;2023-04-25T02:04:37;7.50;99.90
26947;DHT22;14501;52.282;10.560;2023-04-25T02:07:03;8.10;99.90
26947;DHT22;14501;52.282;10.560;2023-04-25T02:09:29;7.60;99.90
26947;DHT22;14501;52.282;10.560;2023-04-25T02:11:55;7.60;99.90
26947;DHT22;14501;52.282;10.560;2023-04-25T02:14:20;8.10;99.90
26947;DHT22;14501;52.282;10.560;2023-04-25T02:16:46;7.80;99.90
26947;DHT22;14501;52.282;10.560;2023-04-25T02:19:12;8.60;99.90
26947;DHT22;14501;52.282;10.560;2023-04-25T02:24:04;7.50;99.90
26947;DHT22;14501;52.282;10.560;2023-04-25T02:26:30;7.60;99.90
26947;DHT22;14501;52.282;10.560;2023-04-25T02:28:56;9.30;99.90
26947;DHT22;14501;52.282;10.560;2023-04-25T02:31:22;9.40;99.90
26947;DHT22;14501;52.282;10.560;2023-04-25T02:33:48;7.50;99.90
26947;DHT22;14501;52.282;10.560;2023-04-25T02:36:14;9.10;99.90
26947;DHT22;14501;52.282;10.560;2023-04-25T02:38:40;7.90;99.90
26947;DHT22;14501;52.282;10.560;2023-04-25T02:41:06;7.60;99.90
26947;DHT22;14501;52.282;10.560;2023-04-25T02:43:31;8.80;99.90
26947;DHT22;14501;52.282;10.560;2023-04-25T02:45:57;7.70;99.90
26947;DHT22;14501;52.282;10.560;2023-04-25T02:48:23;9.90;99.90
26947;DHT22;14501;52.282;10.560;2023-04-25T02:50:48;7.70;99.90
26947;DHT22;14501;52.282;10.560;2023-04-25T02:53:14;7.50;99.90
26947;DHT22;14501;52.282;10.560;2023-04-25T02:55:40;7.60;99.90
26947;DHT22;14501;52.282;10.560;2023-04-25T02:58:06;7.60;99.90
26947;DHT22;14501;52.282;10.560;2023-04-25T03:02:57;7.40;99.90
26947;DHT22;14501;52.282;10.560;2023-04-25T03:05:23;7.70;99.90
26947;DHT22;14501;52.282;10.560;2023-04-25T03:07:48;8.40;99.90
26947;DHT22;14501;52.282;10.560;2023-04-25T03:10:14;10.00;99.90
26947;DHT22;14501;52.282;10.560;2023-04-25T03:12:40;7.40;99.90
26947;DHT22;14501;52.282;10.560;2023-04-25T03:15:05;7.40;99.90
26947;DHT22;14501;52.282;10.560;2023-04-25T03:17:31;7.40;99.90
26947;DHT22;14501;52.282;10.560;2023-04-25T03:19:57;7.40;99.90
26947;DHT22;14501;52.282;10.560;2023-04-25T03:22:23;7.30;99.90
26947;DHT22;14501;52.282;10.560;2023-04-25T03:24:49;9.50;99.90
26947;DHT22;14501;52.282;10.560;2023-04-25T03:27:15;7.30;99.90
26947;DHT22;14501;52.282;10.560;2023-04-25T03:29:41;7.70;99.90
26947;DHT22;14501;52.282;10.560;2023-04-25T03:32:07;7.30;99.90
26947;DHT22;14501;52.282;10.560;2023-04-25T03:34:32;7.20;99.90
26947;DHT22;14501;52.282;10.560;2023-04-25T03:39:24;7.10;99.90
26947;DHT22;14501;52.282;10.560;2023-04-25T03:41:49;7.10;99.90
26947;DHT22;14501;52.282;10.560;2023-04-25T03:44:15;8.30;99.90
26947;DHT22;14501;52.282;10.560;2023-04-25T03:49:07;7.00;99.90
26947;DHT22;14501;52.282;10.560;2023-04-25T03:51:32;6.80;99.90
26947;DHT22;14501;52.282;10.560;2023-04-25T03:53:58;6.90;99.90
26947;DHT22;14501;52.282;10.560;2023-04-25T03:56:23;6.90;99.90
26947;DHT22;14501;52.282;10.560;2023-04-25T03:58:49;6.80;99.90
26947;DHT22;14501;52.282;10.560;2023-04-25T04:01:14;6.70;99.90
26947;DHT22;14501;52.282;10.560;2023-04-25T04:03:40;6.80;99.90
26947;DHT22;14501;52.282;10.560;2023-04-25T04:06:06;6.50;99.90
26947;DHT22;14501;52.282;10.560;2023-04-25T04:08:33;6.50;99.90
26947;DHT22;14501;52.282;10.560;2023-04-25T04:10:59;6.70;99.90
26947;DHT22;14501;52.282;10.560;2023-04-25T04:13:28;6.50;99.90
26947;DHT22;14501;52.282;10.560;2023-04-25T04:15:55;6.60;99.90
26947;DHT22;14501;52.282;10.560;2023-04-25T04:18:21;6.50;99.90
26947;DHT22;14501;52.282;10.560;2023-04-25T04:20:47;6.50;99.90
26947;DHT22;14501;52.282;10.560;2023-04-25T04:23:13;6.40;99.90
26947;DHT22;14501;52.282;10.560;2023-04-25T04:25:39;6.40;99.90
26947;DHT22;14501;52.282;10.560;2023-04-25T04:28:05;6.40;99.90
26947;DHT22;14501;52.282;10.560;2023-04-25T04:30:32;6.50;99.90
26947;DHT22;14501;52.282;10.560;2023-04-25T04:33:02;6.40;99.90
26947;DHT22;14501;52.282;10.560;2023-04-25T04:35:28;6.40;99.90
26947;DHT22;14501;52.282;10.560;2023-04-25T04:37:53;7.90;99.90
26947;DHT22;14501;52.282;10.560;2023-04-25T04:40:20;9.00;99.90
26947;DHT22;14501;52.282;10.560;2023-04-25T04:42:47;6.40;99.90
26947;DHT22;14501;52.282;10.560;2023-04-25T04:45:13;6.50;99.90
26947;DHT22;14501;52.282;10.560;2023-04-25T04:50:07;6.50;99.90
26947;DHT22;14501;52.282;10.560;2023-04-25T04:52:34;6.60;99.90
26947;DHT22;14501;52.282;10.560;2023-04-25T04:55:00;6.60;99.90
26947;DHT22;14501;52.282;10.560;2023-04-25T04:57:26;6.60;99.90
26947;DHT22;14501;52.282;10.560;2023-04-25T04:59:52;6.60;99.90
26947;DHT22;14501;52.282;10.560;2023-04-25T05:02:18;6.70;99.90
26947;DHT22;14501;52.282;10.560;2023-04-25T05:04:44;7.60;99.90
26947;DHT22;14501;52.282;10.560;2023-04-25T05:07:10;8.50;99.90
26947;DHT22;14501;52.282;10.560;2023-04-25T05:09:36;6.90;99.90
26947;DHT22;14501;52.282;10.560;2023-04-25T05:12:02;7.00;99.90
26947;DHT22;14501;52.282;10.560;2023-04-25T05:14:28;7.10;99.90
26947;DHT22;14501;52.282;10.560;2023-04-25T05:16:54;9.20;99.90
26947;DHT22;14501;52.282;10.560;2023-04-25T05:21:45;7.30;99.90
26947;DHT22;14501;52.282;10.560;2023-04-25T05:24:11;7.30;99.90
26947;DHT22;14501;52.282;10.560;2023-04-25T05:26:37;7.30;99.90
26947;DHT22;14501;52.282;10.560;2023-04-25T05:29:02;7.40;99.90
26947;DHT22;14501;52.282;10.560;2023-04-25T05:31:28;7.50;99.90
26947;DHT22;14501;52.282;10.560;2023-04-25T05:33:54;7.50;99.90
26947;DHT22;14501;52.282;10.560;2023-04-25T05:38:45;7.60;99.90
26947;DHT22;14501;52.282;10.560;2023-04-25T05:41:11;7.60;99.90
26947;DHT22;14501;52.282;10.560;2023-04-25T05:43:36;7.70;99.90
26947;DHT22;14501;52.282;10.560;2023-04-25T05:46:02;8.00;99.90
26947;DHT22;14501;52.282;10.560;2023-04-25T05:48:28;8.40;99.90
26947;DHT22;14501;52.282;10.560;2023-04-25T05:50:54;8.80;99.90
26947;DHT22;14501;52.282;10.560;2023-04-25T05:53:20;9.10;99.90
26947;DHT22;14501;52.282;10.560;2023-04-25T05:55:46;9.20;99.90
26947;DHT22;14501;52.282;10.560;2023-04-25T05:58:12;9.20;99.90
26947;DHT22;14501;52.282;10.560;2023-04-25T06:00:38;9.30;99.90
26947;DHT22;14501;52.282;10.560;2023-04-25T06:03:04;9.30;99.90
26947;DHT22;14501;52.282;10.560;2023-04-25T06:05:29;9.70;99.90
26947;DHT22;14501;52.282;10.560;2023-04-25T06:07:55;10.30;99.90
26947;DHT22;14501;52.282;10.560;2023-04-25T06:10:21;11.50;99.90
26947;DHT22;14501;52.282;10.560;2023-04-25T06:12:47;12.30;99.90
26947;DHT22;14501;52.282;10.560;2023-04-25T06:15:12;12.40;99.90
26947;DHT22;14501;52.282;10.560;2023-04-25T06:17:38;11.90;99.90
26947;DHT22;14501;52.282;10.560;2023-04-25T06:20:04;11.70;99.90
26947;DHT22;14501;52.282;10.560;2023-04-25T06:22:31;11.60;99.90
26947;DHT22;14501;52.282;10.560;2023-04-25T06:24:57;11.30;99.90
26947;DHT22;14501;52.282;10.560;2023-04-25T06:27:24;11.70;99.90
26947;DHT22;14501;52.282;10.560;2023-04-25T06:29:50;12.00;99.90
26947;DHT22;14501;52.282;10.560;2023-04-25T06:32:16;12.00;99.90
26947;DHT22;14501;52.282;10.560;2023-04-25T06:34:43;13.20;99.90
26947;DHT22;14501;52.282;10.560;2023-04-25T06:37:09;15.20;99.90
26947;DHT22;14501;52.282;10.560;2023-04-25T06:39:35;17.50;99.90
26947;DHT22;14501;52.282;10.560;2023-04-25T06:42:00;17.50;99.90
26947;DHT22;14501;52.282;10.560;2023-04-25T06:44:26;17.40;99.90
26947;DHT22;14501;52.282;10.560;2023-04-25T06:46:54;17.20;99.90
26947;DHT22;14501;52.282;10.560;2023-04-25T06:49:20;16.00;99.90
26947;DHT22;14501;52.282;10.560;2023-04-25T06:51:45;14.80;99.90
26947;DHT22;14501;52.282;10.560;2023-04-25T06:54:11;14.10;99.90
26947;DHT22;14501;52.282;10.560;2023-04-25T06:56:37;13.50;99.90
26947;DHT22;14501;52.282;10.560;2023-04-25T06:59:02;13.30;99.90
26947;DHT22;14501;52.282;10.560;2023-04-25T07:01:28;14.10;99.90
26947;DHT22;14501;52.282;10.560;2023-04-25T07:03:54;14.80;99.90
26947;DHT22;14501;52.282;10.560;2023-04-25T07:06:19;15.10;99.90
26947;DHT22;14501;52.282;10.560;2023-04-25T07:08:45;14.90;99.90
26947;DHT22;14501;52.282;10.560;2023-04-25T07:11:11;14.90;99.90
26947;DHT22;14501;52.282;10.560;2023-04-25T07:13:37;15.20;99.90
26947;DHT22;14501;52.282;10.560;2023-04-25T07:16:03;15.20;99.90
26947;DHT22;14501;52.282;10.560;2023-04-25T07:18:28;15.20;99.90
26947;DHT22;14501;52.282;10.560;2023-04-25T07:20:54;14.80;99.90
26947;DHT22;14501;52.282;10.560;2023-04-25T07:23:20;15.40;99.90
26947;DHT22;14501;52.282;10.560;2023-04-25T07:25:46;17.70;97.90
26947;DHT22;14501;52.282;10.560;2023-04-25T07:28:12;20.00;95.30
26947;DHT22;14501;52.282;10.560;2023-04-25T07:30:37;21.80;89.20
26947;DHT22;14501;52.282;10.560;2023-04-25T07:33:03;23.20;82.00
26947;DHT22;14501;52.282;10.560;2023-04-25T07:35:29;23.60;79.90
26947;DHT22;14501;52.282;10.560;2023-04-25T07:37:54;24.60;76.60
26947;DHT22;14501;52.282;10.560;2023-04-25T07:40:21;22.90;73.70
26947;DHT22;14501;52.282;10.560;2023-04-25T07:42:46;22.70;73.80
26947;DHT22;14501;52.282;10.560;2023-04-25T07:45:12;22.90;73.80
26947;DHT22;14501;52.282;10.560;2023-04-25T07:47:38;22.60;73.20
26947;DHT22;14501;52.282;10.560;2023-04-25T07:50:04;22.00;75.20
26947;DHT22;14501;52.282;10.560;2023-04-25T07:52:30;20.90;75.80
26947;DHT22;14501;52.282;10.560;2023-04-25T07:54:55;19.90;77.90
26947;DHT22;14501;52.282;10.560;2023-04-25T07:57:23;20.00;78.60
26947;DHT22;14501;52.282;10.560;2023-04-25T07:59:49;21.20;76.50
26947;DHT22;14501;52.282;10.560;2023-04-25T08:02:15;21.50;75.50
26947;DHT22;14501;52.282;10.560;2023-04-25T08:04:41;21.10;76.40
26947;DHT22;14501;52.282;10.560;2023-04-25T08:07:06;19.20;76.80
26947;DHT22;14501;52.282;10.560;2023-04-25T08:09:32;16.40;83.30
26947;DHT22;14501;52.282;10.560;2023-04-25T08:12:02;16.20;83.90
26947;DHT22;14501;52.282;10.560;2023-04-25T08:14:28;15.10;89.30
26947;DHT22;14501;52.282;10.560;2023-04-25T08:16:56;14.40;89.20
26947;DHT22;14501;52.282;10.560;2023-04-25T08:19:22;13.80;91.60
26947;DHT22;14501;52.282;10.560;2023-04-25T08:21:47;13.60;92.10
26947;DHT22;14501;52.282;10.560;2023-04-25T08:24:13;13.70;91.70
26947;DHT22;14501;52.282;10.560;2023-04-25T08:26:39;14.10;91.90
26947;DHT22;14501;52.282;10.560;2023-04-25T08:29:06;14.60;90.70
26947;DHT22;14501;52.282;10.560;2023-04-25T08:31:31;15.10;90.80
26947;DHT22;14501;52.282;10.560;2023-04-25T08:33:57;16.00;91.50
26947;DHT22;14501;52.282;10.560;2023-04-25T08:36:23;16.30;88.80
26947;DHT22;14501;52.282;10.560;2023-04-25T08:38:49;16.10;88.10
26947;DHT22;14501;52.282;10.560;2023-04-25T08:41:15;15.90;89.80
26947;DHT22;14501;52.282;10.560;2023-04-25T08:43:42;15.10;90.50
26947;DHT22;14501;52.282;10.560;2023-04-25T08:46:09;14.30;92.00
26947;DHT22;14501;52.282;10.560;2023-04-25T08:48:36;13.50;92.70
26947;DHT22;14501;52.282;10.560;2023-04-25T08:51:02;12.50;95.10
26947;DHT22;14501;52.282;10.560;2023-04-25T08:53:33;12.00;97.50
26947;DHT22;14501;52.282;10.560;2023-04-25T08:56:01;11.50;99.70
26947;DHT22;14501;52.282;10.560;2023-04-25T08:58:29;11.20;99.70
26947;DHT22;14501;52.282;10.560;2023-04-25T09:00:56;10.90;99.90
26947;DHT22;14501;52.282;10.560;2023-04-25T09:03:21;10.90;99.90
26947;DHT22;14501;52.282;10.560;2023-04-25T09:05:47;11.60;99.90
26947;DHT22;14501;52.282;10.560;2023-04-25T09:08:13;12.80;99.90
26947;DHT22;14501;52.282;10.560;2023-04-25T09:10:39;13.40;96.80
26947;DHT22;14501;52.282;10.560;2023-04-25T09:13:07;13.80;95.80
26947;DHT22;14501;52.282;10.560;2023-04-25T09:15:48;13.80;95.10
26947;DHT22;14501;52.282;10.560;2023-04-25T09:18:22;13.50;95.00
26947;DHT22;14501;52.282;10.560;2023-04-25T09:20:48;15.50;94.90
26947;DHT22;14501;52.282;10.560;2023-04-25T09:23:14;18.80;91.00
26947;DHT22;14501;52.282;10.560;2023-04-25T09:25:40;21.10;84.80
26947;DHT22;14501;52.282;10.560;2023-04-25T09:28:08;22.60;78.20
26947;DHT22;14501;52.282;10.560;2023-04-25T09:30:35;22.60;75.90
26947;DHT22;14501;52.282;10.560;2023-04-25T09:33:11;21.40;72.70
26947;DHT22;14501;52.282;10.560;2023-04-25T09:35:41;19.50;76.70
26947;DHT22;14501;52.282;10.560;2023-04-25T09:38:18;17.80;80.50
26947;DHT22;14501;52.282;10.560;2023-04-25T09:40:45;16.50;82.90
26947;DHT22;14501;52.282;10.560;2023-04-25T09:43:22;15.40;87.50
26947;DHT22;14501;52.282;10.560;2023-04-25T09:45:48;14.70;87.80
26947;DHT22;14501;52.282;10.560;2023-04-25T09:48:21;14.10;90.40
26947;DHT22;14501;52.282;10.560;2023-04-25T09:51:09;13.70;90.80
26947;DHT22;14501;52.282;10.560;2023-04-25T09:53:37;13.20;91.20
26947;DHT22;14501;52.282;10.560;2023-04-25T09:56:07;12.80;92.60
26947;DHT22;14501;52.282;10.560;2023-04-25T09:58:35;12.60;92.70
26947;DHT22;14501;52.282;10.560;2023-04-25T10:01:06;12.20;92.40
26947;DHT22;14501;52.282;10.560;2023-04-25T10:03:33;11.70;93.70
26947;DHT22;14501;52.282;10.560;2023-04-25T10:06:00;11.80;94.50
26947;DHT22;14501;52.282;10.560;2023-04-25T10:08:32;11.80;94.60
26947;DHT22;14501;52.282;10.560;2023-04-25T10:11:02;11.50;95.20
26947;DHT22;14501;52.282;10.560;2023-04-25T10:13:30;11.40;95.20
26947;DHT22;14501;52.282;10.560;2023-04-25T10:16:01;11.40;95.60
26947;DHT22;14501;52.282;10.560;2023-04-25T10:18:28;11.60;94.70
26947;DHT22;14501;52.282;10.560;2023-04-25T10:21:04;11.90;96.00
26947;DHT22;14501;52.282;10.560;2023-04-25T10:23:31;12.40;95.00
26947;DHT22;14501;52.282;10.560;2023-04-25T10:25:57;12.40;94.80
26947;DHT22;14501;52.282;10.560;2023-04-25T10:28:24;12.50;94.80
26947;DHT22;14501;52.282;10.560;2023-04-25T10:31:00;12.40;94.00
26947;DHT22;14501;52.282;10.560;2023-04-25T10:33:41;12.30;94.10
26947;DHT22;14501;52.282;10.560;2023-04-25T10:36:30;12.70;95.60
26947;DHT22;14501;52.282;10.560;2023-04-25T10:38:58;12.70;93.50
26947;DHT22;14501;52.282;10.560;2023-04-25T10:41:31;12.70;94.50
26947;DHT22;14501;52.282;10.560;2023-04-25T10:44:10;12.60;94.50
26947;DHT22;14501;52.282;10.560;2023-04-25T10:46:36;12.80;95.00
26947;DHT22;14501;52.282;10.560;2023-04-25T10:49:02;13.80;97.50
26947;DHT22;14501;52.282;10.560;2023-04-25T10:51:33;14.10;92.80
26947;DHT22;14501;52.282;10.560;2023-04-25T10:54:00;13.90;92.10
26947;DHT22;14501;52.282;10.560;2023-04-25T10:56:45;13.60;92.40
26947;DHT22;14501;52.282;10.560;2023-04-25T11:04:04;13.00;91.00
26947;DHT22;14501;52.282;10.560;2023-04-25T11:09:23;13.00;92.00
26947;DHT22;14501;52.282;10.560;2023-04-25T11:11:56;12.80;91.80
26947;DHT22;14501;52.282;10.560;2023-04-25T11:14:22;12.70;92.20
26947;DHT22;14501;52.282;10.560;2023-04-25T11:16:53;12.60;92.60
26947;DHT22;14501;52.282;10.560;2023-04-25T11:19:20;12.60;92.70
26947;DHT22;14501;52.282;10.560;2023-04-25T11:21:46;12.20;92.60
26947;DHT22;14501;52.282;10.560;2023-04-25T11:24:11;12.20;93.80
26947;DHT22;14501;52.282;10.560;2023-04-25T11:26:37;12.40;94.40
26947;DHT22;14501;52.282;10.560;2023-04-25T11:29:03;12.50;93.60
26947;DHT22;14501;52.282;10.560;2023-04-25T11:31:29;12.50;93.70
26947;DHT22;14501;52.282;10.560;2023-04-25T11:33:57;12.30;92.70
26947;DHT22;14501;52.282;10.560;2023-04-25T11:36:24;12.20;93.60
26947;DHT22;14501;52.282;10.560;2023-04-25T11:38:52;11.60;94.10
26947;DHT22;14501;52.282;10.560;2023-04-25T11:41:18;11.50;94.50
26947;DHT22;14501;52.282;10.560;2023-04-25T11:43:44;11.60;95.00
26947;DHT22;14501;52.282;10.560;2023-04-25T11:46:10;10.80;96.20
26947;DHT22;14501;52.282;10.560;2023-04-25T11:48:40;10.20;97.60
26947;DHT22;14501;52.282;10.560;2023-04-25T11:51:06;10.10;98.30
26947;DHT22;14501;52.282;10.560;2023-04-25T11:55:58;10.30;98.60
26947;DHT22;14501;52.282;10.560;2023-04-25T11:58:24;10.80;99.50
26947;DHT22;14501;52.282;10.560;2023-04-25T12:03:18;11.30;98.60
26947;DHT22;14501;52.282;10.560;2023-04-25T12:05:44;11.70;98.90
26947;DHT22;14501;52.282;10.560;2023-04-25T12:08:14;12.60;97.30
26947;DHT22;14501;52.282;10.560;2023-04-25T12:10:44;12.60;97.30
26947;DHT22;14501;52.282;10.560;2023-04-25T12:15:45;13.20;95.30
26947;DHT22;14501;52.282;10.560;2023-04-25T12:18:11;14.20;92.80
26947;DHT22;14501;52.282;10.560;2023-04-25T12:20:36;14.30;92.70
26947;DHT22;14501;52.282;10.560;2023-04-25T12:23:05;14.60;92.40
26947;DHT22;14501;52.282;10.560;2023-04-25T12:28:28;13.90;90.50
26947;DHT22;14501;52.282;10.560;2023-04-25T12:31:01;13.90;91.20
26947;DHT22;14501;52.282;10.560;2023-04-25T12:33:32;14.10;92.30
26947;DHT22;14501;52.282;10.560;2023-04-25T12:35:58;14.60;92.10
26947;DHT22;14501;52.282;10.560;2023-04-25T12:40:51;14.80;90.10
26947;DHT22;14501;52.282;10.560;2023-04-25T12:43:16;14.80;88.70
26947;DHT22;14501;52.282;10.560;2023-04-25T12:45:43;14.70;87.60
26947;DHT22;14501;52.282;10.560;2023-04-25T12:48:09;13.60;90.90
26947;DHT22;14501;52.282;10.560;2023-04-25T12:50:35;13.60;91.10
26947;DHT22;14501;52.282;10.560;2023-04-25T12:53:00;13.30;92.60
26947;DHT22;14501;52.282;10.560;2023-04-25T12:55:26;13.10;92.80
26947;DHT22;14501;52.282;10.560;2023-04-25T12:57:52;12.50;93.30
26947;DHT22;14501;52.282;10.560;2023-04-25T13:00:17;12.10;92.40
26947;DHT22;14501;52.282;10.560;2023-04-25T13:02:45;12.00;93.30
26947;DHT22;14501;52.282;10.560;2023-04-25T13:05:12;11.70;93.80
26947;DHT22;14501;52.282;10.560;2023-04-25T13:07:38;11.60;95.20
26947;DHT22;14501;52.282;10.560;2023-04-25T13:10:04;11.40;95.40
26947;DHT22;14501;52.282;10.560;2023-04-25T13:12:31;11.50;95.90
26947;DHT22;14501;52.282;10.560;2023-04-25T13:14:56;11.70;97.00
26947;DHT22;14501;52.282;10.560;2023-04-25T13:17:22;12.30;97.10
26947;DHT22;14501;52.282;10.560;2023-04-25T13:19:48;12.60;98.10
26947;DHT22;14501;52.282;10.560;2023-04-25T13:22:13;12.80;97.00
26947;DHT22;14501;52.282;10.560;2023-04-25T13:24:40;13.10;97.30
26947;DHT22;14501;52.282;10.560;2023-04-25T13:27:06;13.30;94.50
26947;DHT22;14501;52.282;10.560;2023-04-25T13:29:32;13.40;94.60
26947;DHT22;14501;52.282;10.560;2023-04-25T13:32:00;13.40;94.90
26947;DHT22;14501;52.282;10.560;2023-04-25T13:34:26;13.20;95.60
26947;DHT22;14501;52.282;10.560;2023-04-25T13:36:52;13.50;95.20
26947;DHT22;14501;52.282;10.560;2023-04-25T13:39:17;13.50;94.50
26947;DHT22;14501;52.282;10.560;2023-04-25T13:41:43;13.40;94.10
26947;DHT22;14501;52.282;10.560;2023-04-25T13:44:09;13.50;95.30
26947;DHT22;14501;52.282;10.560;2023-04-25T13:49:02;13.20;93.70
26947;DHT22;14501;52.282;10.560;2023-04-25T13:53:54;12.90;94.40
26947;DHT22;14501;52.282;10.560;2023-04-25T13:56:20;12.40;94.70
26947;DHT22;14501;52.282;10.560;2023-04-25T13:58:45;12.30;93.50
26947;DHT22;14501;52.282;10.560;2023-04-25T14:01:11;12.10;94.10
26947;DHT22;14501;52.282;10.560;2023-04-25T14:03:37;12.60;94.70
26947;DHT22;14501;52.282;10.560;2023-04-25T14:06:02;12.70;92.90
26947;DHT22;14501;52.282;10.560;2023-04-25T14:08:29;13.40;92.40
26947;DHT22;14501;52.282;10.560;2023-04-25T14:10:55;13.40;92.40
26947;DHT22;14501;52.282;10.560;2023-04-25T14:13:21;13.40;91.00
26947;DHT22;14501;52.282;10.560;2023-04-25T14:15:46;13.00;90.50
26947;DHT22;14501;52.282;10.560;2023-04-25T14:18:12;12.30;91.50
26947;DHT22;14501;52.282;10.560;2023-04-25T14:20:38;12.20;91.70
26947;DHT22;14501;52.282;10.560;2023-04-25T14:23:03;11.90;91.60
26947;DHT22;14501;52.282;10.560;2023-04-25T14:25:29;11.80;93.50
26947;DHT22;14501;52.282;10.560;2023-04-25T14:27:55;11.70;94.20
26947;DHT22;14501;52.282;10.560;2023-04-25T14:30:21;11.40;94.30
26947;DHT22;14501;52.282;10.560;2023-04-25T14:32:48;11.30;95.00
26947;DHT22;14501;52.282;10.560;2023-04-25T14:35:14;11.60;96.80
26947;DHT22;14501;52.282;10.560;2023-04-25T14:37:40;12.20;96.60
26947;DHT22;14501;52.282;10.560;2023-04-25T14:40:07;12.10;96.20
26947;DHT22;14501;52.282;10.560;2023-04-25T14:42:37;12.10;96.20
26947;DHT22;14501;52.282;10.560;2023-04-25T14:45:04;12.30;96.30
26947;DHT22;14501;52.282;10.560;2023-04-25T14:47:31;12.40;96.00
26947;DHT22;14501;52.282;10.560;2023-04-25T14:49:57;12.50;95.30
26947;DHT22;14501;52.282;10.560;2023-04-25T14:52:22;12.50;96.20
26947;DHT22;14501;52.282;10.560;2023-04-25T14:57:15;12.90;95.60
26947;DHT22;14501;52.282;10.560;2023-04-25T14:59:41;13.10;97.00
26947;DHT22;14501;52.282;10.560;2023-04-25T15:02:06;13.10;97.20
26947;DHT22;14501;52.282;10.560;2023-04-25T15:04:32;12.90;97.40
26947;DHT22;14501;52.282;10.560;2023-04-25T15:11:51;12.30;98.30
26947;DHT22;14501;52.282;10.560;2023-04-25T15:14:17;12.00;98.40
26947;DHT22;14501;52.282;10.560;2023-04-25T15:19:09;11.30;99.40
26947;DHT22;14501;52.282;10.560;2023-04-25T15:21:35;11.00;99.70
26947;DHT22;14501;52.282;10.560;2023-04-25T15:24:01;10.90;99.90
26947;DHT22;14501;52.282;10.560;2023-04-25T15:26:27;11.30;99.90
26947;DHT22;14501;52.282;10.560;2023-04-25T15:28:53;10.90;99.90
26947;DHT22;14501;52.282;10.560;2023-04-25T15:33:44;11.10;99.90
26947;DHT22;14501;52.282;10.560;2023-04-25T15:36:10;11.30;99.90
26947;DHT22;14501;52.282;10.560;2023-04-25T15:38:36;11.50;99.90
26947;DHT22;14501;52.282;10.560;2023-04-25T15:41:02;11.40;99.90
26947;DHT22;14501;52.282;10.560;2023-04-25T15:43:28;11.40;99.00
26947;DHT22;14501;52.282;10.560;2023-04-25T15:45:54;11.70;99.20
26947;DHT22;14501;52.282;10.560;2023-04-25T15:48:20;11.20;99.20
26947;DHT22;14501;52.282;10.560;2023-04-25T15:50:45;11.20;99.70
26947;DHT22;14501;52.282;10.560;2023-04-25T15:55:38;10.80;98.20
26947;DHT22;14501;52.282;10.560;2023-04-25T15:58:03;10.30;99.50
26947;DHT22;14501;52.282;10.560;2023-04-25T16:00:29;10.30;98.90
26947;DHT22;14501;52.282;10.560;2023-04-25T16:02:55;10.20;99.10
26947;DHT22;14501;52.282;10.560;2023-04-25T16:05:21;10.00;99.90
26947;DHT22;14501;52.282;10.560;2023-04-25T16:07:49;11.40;99.90
26947;DHT22;14501;52.282;10.560;2023-04-25T16:10:18;9.60;99.90
26947;DHT22;14501;52.282;10.560;2023-04-25T16:12:47;9.60;99.90
26947;DHT22;14501;52.282;10.560;2023-04-25T16:15:13;9.60;99.90
26947;DHT22;14501;52.282;10.560;2023-04-25T16:17:39;9.60;99.90
26947;DHT22;14501;52.282;10.560;2023-04-25T16:20:06;9.60;99.90
26947;DHT22;14501;52.282;10.560;2023-04-25T16:22:35;9.60;99.90
26947;DHT22;14501;52.282;10.560;2023-04-25T16:25:02;11.90;99.90
26947;DHT22;14501;52.282;10.560;2023-04-25T16:27:28;9.80;99.90
26947;DHT22;14501;52.282;10.560;2023-04-25T16:29:53;9.70;99.90
26947;DHT22;14501;52.282;10.560;2023-04-25T16:32:19;9.60;99.90
26947;DHT22;14501;52.282;10.560;2023-04-25T16:34:44;10.00;99.90
26947;DHT22;14501;52.282;10.560;2023-04-25T16:42:02;9.90;99.90
26947;DHT22;14501;52.282;10.560;2023-04-25T16:44:28;10.10;99.90